Latest Weather Observations for Urandangi

IDQ60801

Issued at 3:12 pm EST Monday 23 September 2019 (issued every 10 minutes, with the page automatically refreshed every 10 minutes)

About weather observations | Map of weather stations | Latest weather observations for QLD | Other Formats
Station Details ID: 037058 Name: URANDANGI AERODROME Lat: -21.60 Lon: 138.37 Height: 178.6 m
Data from the previous 72 hours. | See also: Recent months at Urandangi
Date/Time
EST
Temp
°C
App
Temp
°C
Dew
Point
°C
Rel
Hum
%
Delta-T
°C
Wind Press
QNH
hPa
Press
MSL
hPa
Rain since
9am
mm
Dir  Spd
km/h
Gust
km/h
Spd
kts
Gust
kts
23/03:00pm 28.0 19.8 -4.0 12 14.1 SSE 30 46 16 25 1021.5 1020.9 0.0
23/02:30pm 28.7 20.8 -4.6 11 14.6 SSE 28 39 15 21 1021.7 1021.1 0.0
23/02:00pm 28.7 21.2 -4.6 11 14.6 SE 26 41 14 22 1022.2 1021.6 0.0
23/01:30pm 28.3 20.4 -4.9 11 14.5 SSE 28 41 15 22 1022.7 1022.1 0.0
23/01:00pm 27.3 18.9 -5.7 11 14.0 SSE 30 43 16 23 1023.0 1022.4 0.0
23/12:36pm 26.6 18.3 -5.1 12 13.6 SE 30 48 16 26 1023.2 1022.6 0.0
23/12:30pm 26.8 17.9 -4.9 12 13.6 SE 33 48 18 26 1023.3 1022.7 0.0
23/12:00pm 25.5 18.1 -3.9 14 12.7 SE 26 43 14 23 1024.3 1023.6 0.0
23/11:30am 25.3 16.7 -4.1 14 12.7 SE 32 43 17 23 1024.7 1024.0 0.0
23/11:09am 23.8 15.6 -4.4 15 11.9 SE 30 50 16 27 1024.9 1024.2 0.0
23/11:00am 23.8 15.6 -4.4 15 11.9 ESE 30 41 16 22 1025.2 1024.5 0.0
23/10:30am 23.1 14.5 -4.1 16 11.5 SE 32 43 17 23 1025.6 1024.9 0.0
23/10:00am 22.3 13.2 -3.9 17 11.0 SE 35 48 19 26 1025.9 1025.2 0.0
23/09:30am 20.3 10.8 -4.0 19 10.0 SE 37 52 20 28 1025.9 1025.2 0.0
23/09:00am 19.3 9.4 -3.5 21 9.4 SE 39 54 21 29 1026.1 1025.4 0.0
23/08:30am 18.8 9.7 -3.3 22 9.1 SE 35 48 19 26 1026.1 1025.4 0.0
23/08:00am 18.7 10.6 -3.4 22 9.0 SE 30 46 16 25 1026.0 1025.3 0.0
23/07:30am 17.9 10.9 -3.5 23 8.7 SE 24 33 13 18 1025.9 1025.2 0.0
23/07:00am 17.2 11.1 -4.1 23 8.5 SSE 19 26 10 14 1025.6 1024.9 0.0
23/06:30am 17.5 11.2 -3.8 23 8.6 SSE 20 26 11 14 1025.2 1024.5 0.0
23/06:00am 17.6 11.3 -4.3 22 8.7 SSE 20 28 11 15 1025.1 1024.4 0.0
23/05:30am 18.1 11.1 -3.9 22 8.9 SE 24 33 13 18 1024.6 1023.9 0.0
23/05:00am 18.6 10.8 -4.1 21 9.1 SSE 28 39 15 21 1024.1 1023.4 0.0
23/04:30am 18.8 11.3 -4.6 20 9.4 SSE 26 37 14 20 1024.1 1023.4 0.0
23/04:00am 19.3 12.1 -4.9 19 9.7 SSE 24 39 13 21 1023.8 1023.1 0.0
23/03:30am 19.6 12.8 -5.3 18 9.9 SSE 22 35 12 19 1024.2 1023.5 0.0
23/03:00am 19.9 12.7 -5.1 18 10.0 SSE 24 37 13 20 1023.8 1023.1 0.0
23/02:30am 19.9 13.1 -5.1 18 10.0 SSE 22 32 12 17 1024.0 1023.3 0.0
23/02:00am 19.9 13.4 -5.8 17 10.1 SSE 20 28 11 15 1024.4 1023.7 0.0
23/01:30am 19.9 13.6 -5.8 17 10.2 SSE 19 26 10 14 1024.6 1023.9 0.0
23/01:00am 20.0 13.1 -6.5 16 10.3 SSE 22 30 12 16 1024.6 1023.9 0.0
23/12:30am 20.0 13.5 -7.4 15 10.5 S 19 24 10 13 1024.9 1024.2 0.0
23/12:00am 20.3 13.9 -7.1 15 10.6 S 19 24 10 13 1024.9 1024.2 0.0
 
Date/Time
EST
Temp
°C
App
Temp
°C
Dew
Point
°C
Rel
Hum
%
Delta-T
°C
Wind Press
QNH
hPa
Press
MSL
hPa
Rain since
9am
mm
Dir  Spd
km/h
Gust
km/h
Spd
kts
Gust
kts
22/11:30pm 20.5 14.1 -7.0 15 10.7 SSE 19 26 10 14 1025.0 1024.3 0.0
22/11:00pm 20.5 14.2 -6.1 16 10.5 S 19 28 10 15 1024.9 1024.2 0.0
22/10:30pm 20.7 14.4 -6.0 16 10.6 S 19 24 10 13 1024.9 1024.2 0.0
22/10:00pm 21.1 14.9 -4.9 17 10.6 SSE 19 22 10 12 1025.0 1024.3 0.0
22/09:30pm 20.9 15.6 -3.6 19 10.2 S 15 20 8 11 1024.9 1024.2 0.0
22/09:00pm 21.6 16.7 -3.0 19 10.4 SSE 13 17 7 9 1024.7 1024.0 0.0
22/08:30pm 22.3 16.7 -3.1 18 10.9 SSE 17 20 9 11 1024.3 1023.6 0.0
22/08:00pm 22.5 17.6 -3.0 18 10.9 S 13 19 7 10 1024.0 1023.3 0.0
22/07:30pm 23.2 18.1 -1.7 19 11.0 SSE 15 17 8 9 1023.3 1022.7 0.0
22/07:00pm 24.4 18.9 -2.2 17 11.7 SSE 17 24 9 13 1022.7 1022.1 0.0
22/06:30pm 25.1 19.1 -1.6 17 12.0 SSE 20 32 11 17 1021.9 1021.3 0.0
22/06:00pm 25.9 18.7 -1.8 16 12.5 SSE 26 35 14 19 1021.6 1021.0 0.0
22/05:30pm 26.5 19.8 -1.3 16 12.7 SE 24 33 13 18 1021.5 1020.9 0.0
22/05:00pm 27.1 20.3 -1.7 15 13.1 SE 24 33 13 18 1021.6 1021.0 0.0
22/04:30pm 27.0 19.4 -1.8 15 13.1 SSE 28 43 15 23 1021.5 1020.9 0.0
22/04:00pm 26.9 19.0 -1.9 15 13.1 S 30 39 16 21 1021.5 1020.9 0.0
22/03:30pm 27.1 19.2 -1.7 15 13.2 SSE 30 44 16 24 1021.6 1021.0 0.0
22/03:00pm 27.6 20.2 -0.5 16 13.1 S 28 39 15 21 1021.9 1021.3 0.0
22/02:30pm 26.6 19.1 -1.3 16 12.8 S 28 43 15 23 1022.4 1021.8 0.0
22/02:00pm 26.6 19.2 -0.4 17 12.5 SSE 28 39 15 21 1022.6 1022.0 0.0
22/01:30pm 26.1 18.3 -0.8 17 12.4 S 30 37 16 20 1023.1 1022.5 0.0
22/01:00pm 25.9 18.5 -1.0 17 12.3 SSE 28 35 15 19 1023.4 1022.8 0.0
22/12:30pm 24.6 16.7 -1.3 18 11.7 SSE 30 44 16 24 1023.6 1023.0 0.0
22/12:00pm 23.4 15.5 -1.5 19 11.0 SSE 30 43 16 23 1023.8 1023.1 0.0
22/11:30am 23.2 15.3 -1.7 19 11.0 SE 30 41 16 22 1024.3 1023.6 0.0
22/11:00am 23.1 15.6 -1.1 20 10.8 SE 28 37 15 20 1024.8 1024.1 0.0
22/10:30am 21.0 12.7 -1.5 22 9.8 SE 32 43 17 23 1024.9 1024.2 0.0
22/10:00am 19.9 11.7 -1.2 24 9.1 SE 32 41 17 22 1025.1 1024.4 0.0
22/09:30am 18.7 10.2 -1.7 25 8.7 SE 33 46 18 25 1025.2 1024.5 0.0
22/09:00am 17.8 8.2 -1.4 27 8.1 SE 39 54 21 29 1025.1 1024.4 0.0
22/08:57am 17.6 8.0 -1.6 27 8.1 SE 39 54 21 29 1025.1 1024.4 0.0
22/08:30am 17.0 10.2 -1.6 28 7.8 SE 24 33 13 18 1025.1 1024.4 0.0
22/08:00am 15.6 9.1 -2.3 29 7.3 SE 22 33 12 18 1024.7 1024.0 0.0
22/07:30am 14.4 8.5 -2.5 31 6.8 SSE 19 26 10 14 1024.2 1023.5 0.0
22/07:00am 13.7 7.7 -2.7 32 6.5 SSE 19 24 10 13 1023.5 1022.9 0.0
22/06:30am 13.6 8.1 -2.3 33 6.4 SSE 17 22 9 12 1023.3 1022.7 0.0
22/06:00am 13.9 8.3 -2.5 32 6.5 SE 17 20 9 11 1022.9 1022.3 0.0
22/05:30am 14.2 8.2 -2.7 31 6.7 SSE 19 24 10 13 1022.3 1021.7 0.0
22/05:00am 14.5 8.5 -2.8 30 6.9 SSE 19 24 10 13 1021.9 1021.3 0.0
22/04:30am 14.9 8.8 -2.5 30 7.0 SSE 20 30 11 16 1021.6 1021.0 0.0
22/04:00am 15.0 9.1 -2.4 30 7.0 SSE 19 24 10 13 1021.3 1020.6 0.0
22/03:30am 15.3 8.8 -2.6 29 7.2 SSE 22 30 12 16 1021.3 1020.6 0.0
22/03:00am 15.9 9.4 -2.6 28 7.5 SSE 22 30 12 16 1021.4 1020.7 0.0
22/02:30am 16.2 9.7 -2.8 27 7.7 SSE 22 28 12 15 1021.6 1021.0 0.0
22/02:00am 16.7 10.3 -1.4 29 7.6 SSE 22 37 12 20 1021.6 1021.0 0.0
22/01:30am 16.9 11.1 -0.3 31 7.4 SSE 20 28 11 15 1021.8 1021.2 0.0
22/01:00am 17.3 11.7 0.0 31 7.5 SSE 19 24 10 13 1021.6 1021.0 0.0
22/12:30am 17.4 12.2 0.1 31 7.6 SSE 17 22 9 12 1021.4 1020.7 0.0
22/12:00am 17.9 12.7 0.1 30 7.8 SSE 17 22 9 12 1021.4 1020.7 0.0
 
Date/Time
EST
Temp
°C
App
Temp
°C
Dew
Point
°C
Rel
Hum
%
Delta-T
°C
Wind Press
QNH
hPa
Press
MSL
hPa
Rain since
9am
mm
Dir  Spd
km/h
Gust
km/h
Spd
kts
Gust
kts
21/11:30pm 18.4 12.9 0.5 30 8.0 SSE 19 28 10 15 1021.4 1020.7 0.0
21/11:00pm 18.9 13.1 0.0 28 8.3 S 20 28 11 15 1021.4 1020.7 0.0
21/10:30pm 18.9 13.7 0.0 28 8.3 S 17 20 9 11 1021.2 1020.5 0.0
21/10:00pm 19.1 14.7 0.2 28 8.4 S 13 19 7 10 1021.2 1020.5 0.0
21/09:30pm 19.1 15.1 0.2 28 8.4 S 11 13 6 7 1021.0 1020.3 0.0
21/09:00pm 19.9 15.5 0.4 27 8.7 SSE 13 17 7 9 1020.8 1020.1 0.0
21/08:30pm 20.4 16.4 0.8 27 8.9 SSE 11 15 6 8 1020.5 1019.8 0.0
21/08:00pm 21.1 17.2 0.9 26 9.2 SSE 11 13 6 7 1020.2 1019.5 0.0
21/07:30pm 22.2 17.9 1.3 25 9.7 SSE 13 17 7 9 1019.9 1019.2 0.0
21/07:00pm 23.2 18.6 1.5 24 10.2 SSE 15 20 8 11 1019.7 1019.0 0.0
21/06:30pm 24.1 18.8 1.7 23 10.7 SSE 19 26 10 14 1019.2 1018.5 0.0
21/06:00pm 24.8 18.9 1.7 22 11.0 SSE 22 28 12 15 1018.9 1018.2 0.0
21/05:30pm 25.4 19.5 1.5 21 11.4 SSE 22 32 12 17 1018.7 1018.0 0.0
21/05:00pm 25.9 20.0 1.9 21 11.6 SSE 22 33 12 18 1018.4 1017.7 0.0
21/04:30pm 26.4 21.0 2.3 21 11.8 SE 20 32 11 17 1018.4 1017.7 0.0
21/04:00pm 26.1 20.7 2.7 22 11.5 SSE 20 33 11 18 1018.4 1017.7 0.0
21/03:30pm 25.8 19.3 2.5 22 11.4 SSE 26 35 14 19 1018.7 1018.0 0.0
21/03:00pm 26.3 21.0 2.9 22 11.5 SE 20 35 11 19 1018.7 1018.0 0.0
21/02:30pm 26.0 20.0 3.3 23 11.3 SE 24 33 13 18 1019.3 1018.6 0.0
21/02:00pm 24.9 18.8 3.0 24 10.7 SE 24 41 13 22 1019.6 1018.9 0.0
21/01:30pm 24.3 18.6 3.0 25 10.4 SE 22 41 12 22 1020.2 1019.5 0.0
21/01:00pm 24.0 17.9 2.8 25 10.3 SSE 24 37 13 20 1020.6 1019.9 0.0
21/12:30pm 23.2 16.7 2.7 26 9.9 SSE 26 35 14 19 1020.9 1020.2 0.0
21/12:00pm 22.4 15.1 2.5 27 9.5 SSE 30 39 16 21 1021.1 1020.4 0.0
21/11:30am 21.5 14.2 2.2 28 9.1 SSE 30 44 16 24 1021.5 1020.9 0.0
21/11:00am 21.2 14.0 3.0 30 8.7 SE 30 43 16 23 1021.7 1021.1 0.0
21/10:30am 20.0 13.1 2.8 32 8.1 SSE 28 41 15 22 1022.1 1021.5 0.0
21/10:00am 19.1 11.6 3.7 36 7.3 SSE 32 43 17 23 1022.2 1021.6 0.0
21/09:30am 18.6 12.0 4.4 39 6.8 SSE 28 37 15 20 1022.5 1021.9 0.0
21/09:00am 17.4 10.4 4.0 41 6.3 SSE 30 39 16 21 1022.3 1021.7 0.0
21/08:30am 17.0 10.0 4.3 43 6.0 SSE 30 39 16 21 1022.1 1021.5 0.0
21/08:00am 16.6 10.0 4.3 44 5.8 S 28 37 15 20 1021.7 1021.1 0.0
21/07:30am 16.2 10.8 4.3 45 5.6 S 22 30 12 16 1021.2 1020.5 0.0
21/07:00am 16.0 10.9 4.1 45 5.6 S 20 26 11 14 1020.9 1020.2 0.0
21/06:30am 16.2 10.8 4.3 45 5.6 S 22 32 12 17 1020.3 1019.6 0.0
21/06:00am 16.4 11.6 4.4 45 5.7 SSE 19 26 10 14 1019.8 1019.1 0.0
21/05:30am 16.8 11.5 4.8 45 5.7 SSE 22 30 12 16 1019.2 1018.5 0.0
21/05:00am 16.9 12.0 4.9 45 5.7 S 20 28 11 15 1018.7 1018.0 0.0
21/04:30am 17.3 12.0 4.9 44 6.0 S 22 33 12 18 1018.3 1017.6 0.0
21/04:00am 17.7 11.6 5.0 43 6.1 S 26 35 14 19 1018.0 1017.3 0.0
21/03:30am 18.1 12.6 5.7 44 6.1 S 24 32 13 17 1018.0 1017.3 0.0
21/03:00am 18.6 14.0 6.4 45 6.1 S 20 28 11 15 1017.7 1017.1 0.0
21/02:30am 19.4 14.0 6.5 43 6.5 S 24 37 13 20 1017.4 1016.8 0.0
21/02:00am 20.1 14.3 6.1 40 7.0 S 26 39 14 21 1017.0 1016.4 0.0
21/01:30am 21.1 14.0 5.5 36 7.8 S 32 44 17 24 1016.5 1015.8 0.0
21/01:00am 22.1 15.5 4.2 31 8.8 SSW 28 39 15 21 1015.8 1015.1 0.0
21/12:30am 22.9 15.4 3.4 28 9.5 SSW 32 46 17 25 1015.2 1014.5 0.0
21/12:15am 26.0 18.8 0.6 19 12.0 SW 28 50 15 27 1014.4 1013.7 0.0
21/12:00am 24.4 18.9 -2.2 17 11.8 N 17 20 9 11 1013.2 1012.5 0.0
 
Date/Time
EST
Temp
°C
App
Temp
°C
Dew
Point
°C
Rel
Hum
%
Delta-T
°C
Wind Press
QNH
hPa
Press
MSL
hPa
Rain since
9am
mm
Dir  Spd
km/h
Gust
km/h
Spd
kts
Gust
kts
20/11:30pm 25.3 19.7 -3.2 15 12.5 N 17 22 9 12 1013.3 1012.6 0.0
20/11:00pm 26.4 20.2 -3.2 14 13.1 N 20 26 11 14 1013.4 1012.7 0.0
20/10:30pm 26.9 20.7 -4.9 12 13.7 N 19 24 10 13 1013.3 1012.6 0.0
20/10:00pm 26.9 21.0 -6.0 11 13.9 N 17 22 9 12 1013.4 1012.7 0.0
20/09:30pm 27.4 21.4 -6.9 10 14.3 N 17 20 9 11 1013.1 1012.4 0.0
20/09:00pm 27.6 22.0 -6.7 10 14.4 N 15 17 8 9 1013.0 1012.3 0.0
20/08:30pm 27.1 21.8 -7.1 10 14.2 N 13 15 7 8 1012.6 1011.9 0.0
20/08:00pm 28.2 23.0 -6.3 10 14.7 N 13 19 7 10 1012.3 1011.6 0.0
20/07:30pm 29.7 24.5 -6.5 9 15.5 N 13 15 7 8 1011.9 1011.3 0.0
20/07:00pm 31.7 26.1 -6.6 8 16.7 N 15 20 8 11 1011.6 1010.9 0.0
20/06:30pm 33.3 27.0 -5.4 8 17.4 N 19 26 10 14 1011.3 1010.6 0.0
20/06:00pm 34.7 28.2 -6.1 7 18.4 NNW 20 32 11 17 1011.0 1010.3 0.0
20/05:30pm 35.6 27.8 -7.5 6 19.1 NNW 26 41 14 22 1010.7 1010.0 0.0
20/05:00pm 36.3 29.1 -9.3 5 19.8 NNW 22 35 12 19 1010.5 1009.8 0.0
20/04:30pm 36.2 29.4 -9.4 5 19.7 NNW 20 33 11 18 1010.4 1009.7 0.0
20/04:00pm 36.5 29.7 -9.2 5 19.9 NW 20 35 11 19 1010.5 1009.8 0.0
20/03:30pm 36.6 29.4 -9.1 5 19.9 NNW 22 35 12 19 1010.6 1009.9 0.0

Other formats

Comma delimited format used in spreadsheet applications
http://www.bom.gov.au/fwo/IDQ60801/IDQ60801.94344.axf

JavaScript Object Notation format (JSON) in row-major order
http://www.bom.gov.au/fwo/IDQ60801/IDQ60801.94344.json

Data quality

Most of these data are generated automatically and are frequently updated. Quality checks on data are not normally performed. It is possible for incorrect values to appear. Refer to information at About Latest Weather Observations and please check the disclaimer before using these data.